SBRJSBSC

Guest
Details From SBRJ - Santos-dumont
To SBSC - Santa Cruz
Flight Number -
Tags Routegen Generated
Created
Modified
Stats Distance 38 nm / 71 km
Max Altitude 100 ft / 30 m
Waypoints 5
Social Downloads 5
Likes 0
Share VATSIM

Download

Looking for another format? Having issues loading an existing format? Contact us
Advertisement - Login to hide

Notes

Departing runway 17 SBRJ. Arriving runway 2 SBSC.

Route

SBRJ -22.98_-043.16 -22.92_-043.42 -22.86_-043.68 SBSC

ID Type Via Altitude Latitude Longitude Leg Dist Tot Dist Heading (true) Name
O SBRJ APT - 0 ft / 0 m -22.90461˚ -43.16300˚ - 0 nm - -
-22.98_-043.16 LATLON - 100 ft / 30 m -22.97693˚ -43.16027˚ 4 nm 4 nm 178° / 178° -
-22.92_-043.42 LATLON - 100 ft / 30 m -22.91603˚ -43.42089˚ 14 nm 19 nm 284° / 284° -
-22.86_-043.68 LATLON - 100 ft / 30 m -22.85514˚ -43.68150˚ 14 nm 34 nm 284° / 284° -
O SBSC APT - 0 ft / 0 m -22.92119˚ -43.71359˚ 4 nm 38 nm 204° / 204° -

Altitude Profile

Advertisement - Login to hide

SBRJ

Details ICAO SBRJ (SDU)
Name Santos-Dumont
Region Brazil
Timezone Unknown (UTC+0.0)
Stats Elevation 11 ft / 3 m (AMSL)
Location -22.910460° -43.163133°
Runways 2
Magnetic Variation 22.782° W

METAR

SBRJ 150600Z 35003KT CAVOK 23/21 Q1012

Decode

TAF

TAF TAF SBRJ 150130Z 1506/1518 26005KT 7000 SCT015TN24/1508Z TX32/1516Z PROB30 1508/1511 BKN007 BECMG 1511/1513 14005KT 8000 SCT020 BECMG 1514/1516 17015KT 9999 FEW025 RMK PGZ

Decode

Departure Runways

ID Width Length Bearing (true) Bearing (mag) Surface Threshold Offset Overrun Length
02L 98 ft / 30 m 4,154 ft / 1,266 m 358.02° 20.80° Asphalt 0 ft / 0 m 80 ft / 24 m
02R 138 ft / 42 m 4,361 ft / 1,329 m 358.01° 20.79° Asphalt 0 ft / 0 m 80 ft / 24 m
20L 138 ft / 42 m 4,361 ft / 1,329 m 178.01° 200.79° Asphalt 0 ft / 0 m 80 ft / 24 m
20R 98 ft / 30 m 4,154 ft / 1,266 m 178.02° 200.80° Asphalt 0 ft / 0 m 95 ft / 29 m

SBSC

Details ICAO SBSC (STU)
Name SANTA CRUZ
Region Brazil
Timezone America/Sao_Paulo (UTC-2.0)
Stats Elevation 10 ft / 3 m (AMSL)
Location -22.932489° -43.719090°
Runways 1
Magnetic Variation 22.586° W

METAR

SBSC 150600Z 04005KT CAVOK 22/20 Q1014

Decode

TAF

TAF SBSC 150130Z 1506/1518 02005KT 7000 SCT015TN23/1507Z TX33/1516Z PROB30 1508/1511 4000 BR SCT012 BECMG 1511/1513 9999 SCT020 BECMG 1514/1516 21015KT FEW025 RMK PGZ

Decode

Destination Runways

ID Width Length Bearing (true) Bearing (mag) Surface Threshold Offset Overrun Length
05 148 ft / 45 m 9,039 ft / 2,755 m 24.13° 46.72° Asphalt 0 ft / 0 m 1,145 ft / 349 m
23 148 ft / 45 m 9,039 ft / 2,755 m 204.12° 226.71° Asphalt 0 ft / 0 m 1,145 ft / 349 m

Popular Alternatives